EST,Max TemperatureF,Mean TemperatureF,Min TemperatureF,Max Dew PointF,MeanDew PointF,Min DewpointF,Max Humidity, Mean Humidity, Min Humidity, Max Sea Level PressureIn, Mean Sea Level PressureIn, Min Sea Level PressureIn, Max VisibilityMiles, Mean VisibilityMiles, Min VisibilityMiles, Max Wind SpeedMPH, Mean Wind SpeedMPH, Max Gust SpeedMPH,PrecipitationIn, CloudCover, Events, WindDirDegrees
2014-1-1,15,10,4,9,3,-3,84,71,58,30.47,30.38,30.31,10,10,7,17,8,21,T,7,Snow,24
2014-1-2,14,7,0,7,2,-7,83,71,58,30.36,30.27,30.19,10,6,1,25,15,28,0.01,7,Snow,12
2014-1-3,14,4,-7,2,-4,-11,79,66,53,30.45,30.33,30.04,10,10,10,25,11,32,0.00,3,,224
2014-1-4,31,23,14,27,17,1,92,74,55,30.02,29.91,29.80,10,7,2,28,16,33,0.11,5,Snow,213
2014-1-5,29,23,16,28,20,12,100,92,84,30.09,29.92,29.65,9,2,0,26,15,31,0.75,8,Fog-Snow,9
2014-1-6,16,4,-9,10,0,-17,80,70,59,30.05,29.82,29.66,10,4,0,30,16,37,0.10,6,Fog-Snow,265
2014-1-7,8,-1,-11,-1,-8,-17,79,74,69,30.29,30.13,30.04,10,8,2,26,15,32,T,4,Snow,224
2014-1-8,14,7,0,6,0,-6,86,78,70,30.55,30.39,30.27,10,10,9,16,8,20,0.00,5,,233
2014-1-9,18,7,-5,12,3,-5,95,81,67,30.63,30.51,30.27,10,9,6,8,3,10,T,4,Snow,209
2014-1-10,40,29,17,37,27,14,92,85,77,30.28,30.02,29.62,8,5,2,20,8,26,0.48,8,Rain,162
2014-1-11,41,37,33,39,34,27,100,88,75,29.63,29.42,29.27,10,7,0,23,14,31,0.07,8,Fog-Rain,235
2014-1-12,39,36,32,28,27,25,82,73,64,29.88,29.76,29.62,10,10,10,23,13,26,0.00,4,,226
2014-1-13,42,38,33,33,30,27,85,68,50,29.67,29.58,29.50,10,10,10,17,10,23,T,4,Rain,209
2014-1-14,36,30,24,30,24,20,69,55,41,29.77,29.67,29.63,10,7,1,21,10,35,0.02,6,Rain,204
2014-1-15,30,25,20,23,15,10,75,65,55,29.99,29.84,29.61,10,10,2,23,13,32,T,8,Snow,250
2014-1-16,27,23,19,25,17,10,92,80,67,29.89,29.69,29.58,10,6,1,23,14,29,0.04,8,Snow,175
2014-1-17,32,26,20,28,21,13,92,80,68,29.90,29.71,29.56,10,6,1,22,14,29,0.08,7,Snow,227
2014-1-18,23,20,17,18,14,12,84,76,68,29.91,29.87,29.81,10,8,2,16,9,18,T,8,Snow,216
2014-1-19,30,21,12,24,19,10,92,83,73,29.79,29.56,29.47,10,8,2,36,16,46,T,7,Snow,227
2014-1-20,29,18,7,27,9,-6,92,74,55,30.17,29.85,29.52,10,8,2,24,10,29,T,7,Snow,8
2014-1-21,8,4,0,-5,-7,-8,75,63,50,30.28,30.23,30.15,10,10,10,17,9,22,0.00,1,,9
2014-1-22,12,5,-3,7,1,-8,83,76,68,30.23,30.00,29.89,10,4,0,16,7,20,0.08,8,Snow,170
2014-1-23,14,7,-1,5,0,-7,83,67,50,30.50,30.25,29.98,10,6,0,17,7,21,0.01,4,Snow,333
2014-1-24,20,10,-1,12,1,-7,87,70,53,30.43,29.93,29.42,10,5,2,36,19,46,T,6,Snow,213
2014-1-25,26,14,2,22,11,-6,88,67,46,29.78,29.38,29.22,10,5,0,26,16,32,0.08,7,Fog-Snow,284
2014-1-26,21,11,1,16,7,-3,87,77,67,29.77,29.48,29.35,10,5,1,24,11,32,0.06,8,Snow,210
2014-1-27,17,7,-3,7,-6,-12,69,57,45,30.29,29.94,29.42,10,9,4,28,16,37,T,3,Snow,278
2014-1-28,10,3,-5,0,-5,-10,82,73,63,30.31,30.22,30.06,10,9,5,24,15,35,0.00,3,Snow,225
2014-1-29,18,10,2,7,2,-5,83,69,55,30.13,30.05,29.96,10,9,4,30,19,37,0.00,4,Snow,236
2014-1-30,29,21,12,24,12,1,81,65,49,30.07,29.82,29.69,10,7,0,28,17,38,T,5,Fog-Snow,198
2014-1-31,32,26,19,26,17,13,85,73,60,30.16,30.01,29.75,10,10,8,18,9,22,T,3,,248